Time;durP1;ratioP1;P1;durP2;ratioP2;P2;SDS_P1;SDS_P2;PMS_P1;PMS_P2;Temp;Humidity;BMP_temperature;BMP_pressure;BME280_temperature;BME280_humidity;BME280_pressure;Samples;Min_cycle;Max_cycle;Signal;HPM_P1;HPM_P2
2021/12/28 00:00:27;;;;;;;;;;;3.00;99.90;;;;;;5074915;28;19927;-76
2021/12/28 00:02:54;;;;;;;;;;;3.00;99.90;;;;;;5075063;28;19967;-76
2021/12/28 00:05:20;;;;;;;;;;;3.00;99.90;;;;;;5092971;28;19946;-76
2021/12/28 00:07:46;;;;;;;;;;;3.00;99.90;;;;;;5074894;28;20436;-76
2021/12/28 00:10:13;;;;;;;;;;;3.10;99.90;;;;;;5074109;28;19923;-76
2021/12/28 00:12:39;;;;;;;;;;;3.10;99.90;;;;;;5074763;28;19920;-76
2021/12/28 00:15:17;;;;;;;;;;;3.20;99.90;;;;;;5074319;28;19946;-76
2021/12/28 00:20:36;;;;;;;;;;;3.20;99.90;;;;;;5092227;28;20079;-76
2021/12/28 00:23:04;;;;;;;;;;;3.20;99.90;;;;;;5092122;28;19974;-76
2021/12/28 00:25:30;;;;;;;;;;;3.20;99.90;;;;;;5074851;28;20600;-76
2021/12/28 00:27:55;;;;;;;;;;;3.20;99.90;;;;;;5092548;28;19954;-76
2021/12/28 00:30:21;;;;;;;;;;;3.20;99.90;;;;;;5092327;28;20374;-76
2021/12/28 00:32:52;;;;;;;;;;;3.30;99.90;;;;;;5074256;28;19920;-75
2021/12/28 00:35:18;;;;;;;;;;;3.30;99.90;;;;;;5073842;28;19942;-76
2021/12/28 00:37:43;;;;;;;;;;;3.30;99.90;;;;;;5092300;28;19920;-76
2021/12/28 00:40:09;;;;;;;;;;;3.30;99.90;;;;;;5074342;28;19994;-76
2021/12/28 00:42:35;;;;;;;52.78;29.20;;;3.30;99.90;;;;;;5073682;28;20386;-76
2021/12/28 00:45:00;;;;;;;48.60;35.88;;;3.40;99.90;;;;;;5072129;28;20467;-76
2021/12/28 00:47:26;;;;;;;50.60;35.50;;;3.40;99.90;;;;;;5089905;28;20776;-76
2021/12/28 00:49:51;;;;;;;48.33;33.03;;;3.30;99.90;;;;;;5072308;28;20510;-76
2021/12/28 00:52:17;;;;;;;45.95;33.13;;;3.30;99.90;;;;;;5090233;28;20410;-76
2021/12/28 00:54:43;;;;;;;44.73;33.13;;;3.30;99.90;;;;;;5039602;28;20438;-76
2021/12/28 00:57:08;;;;;;;43.73;33.00;;;3.30;99.90;;;;;;5068861;28;20403;-76
2021/12/28 00:59:34;;;;;;;43.90;32.25;;;3.30;99.90;;;;;;5070148;28;20395;-76
2021/12/28 01:01:59;;;;;;;43.83;32.00;;;3.30;99.90;;;;;;5035071;28;20407;-76
2021/12/28 01:04:26;;;;;;;44.28;32.38;;;3.40;99.90;;;;;;5051773;28;20404;-76
2021/12/28 01:06:52;;;;;;;45.13;32.80;;;3.30;99.90;;;;;;5062983;28;20422;-76
2021/12/28 01:09:17;;;;;;;42.17;31.47;;;3.30;99.90;;;;;;5081582;28;20410;-76
2021/12/28 01:11:43;;;;;;;45.50;32.72;;;3.30;99.90;;;;;;5074943;28;20486;-76
2021/12/28 01:14:09;;;;;;;48.33;33.83;;;3.30;99.90;;;;;;5051462;28;20794;-76
2021/12/28 01:16:35;;;;;;;48.27;33.70;;;3.30;99.90;;;;;;5071055;28;20402;-76
2021/12/28 01:19:00;;;;;;;55.00;36.60;;;3.30;99.90;;;;;;5071160;28;20410;-76
2021/12/28 01:21:26;;;;;;;54.33;35.78;;;3.30;99.90;;;;;;5071184;28;20443;-76
2021/12/28 01:23:52;;;;;;;57.50;38.47;;;3.40;99.90;;;;;;5062107;28;20458;-76
2021/12/28 01:26:18;;;;;;;62.65;32.00;;;3.40;99.90;;;;;;5053068;28;20048;-76
2021/12/28 01:28:43;;;;;;;56.30;29.25;;;3.30;99.90;;;;;;5052278;28;20040;-76
2021/12/28 01:31:09;;;;;;;65.75;31.60;;;3.30;99.90;;;;;;5070160;28;20037;-76
2021/12/28 01:33:34;;;;;;;;;;;3.40;99.90;;;;;;5053000;28;20502;-76
2021/12/28 01:36:00;;;;;;;;;;;3.40;99.90;;;;;;5085750;28;20027;-76
2021/12/28 01:38:26;;;;;;;;;;;3.40;99.90;;;;;;5070943;28;20025;-76
2021/12/28 01:40:53;;;;;;;;;;;3.40;99.90;;;;;;5079530;28;19924;-76
2021/12/28 01:43:19;;;;;;;;;;;3.40;99.90;;;;;;5072844;28;19931;-76
2021/12/28 01:45:50;;;;;;;;;;;3.40;99.90;;;;;;5072937;28;20305;-76
2021/12/28 01:48:18;;;;;;;;;;;3.50;99.90;;;;;;5090986;28;19965;-76
2021/12/28 01:50:44;;;;;;;;;;;3.50;99.90;;;;;;5072555;28;19920;-76
2021/12/28 01:53:10;;;;;;;;;;;3.50;99.90;;;;;;5055958;28;19924;-76
2021/12/28 01:55:37;;;;;;;;;;;3.50;99.90;;;;;;5055818;28;19924;-76
2021/12/28 01:58:03;;;;;;;;;;;3.50;99.90;;;;;;5090741;28;19966;-76
2021/12/28 02:00:29;;;;;;;;;;;3.50;99.90;;;;;;5072762;28;19923;-76
2021/12/28 02:02:54;;;;;;;;;;;3.50;99.90;;;;;;5055507;28;19931;-76
2021/12/28 02:05:20;;;;;;;;;;;3.60;99.90;;;;;;5072860;28;20339;-76
2021/12/28 02:07:45;;;;;;;;;;;3.60;99.90;;;;;;5071791;28;20457;-76
2021/12/28 02:10:11;;;;;;;;;;;3.60;99.90;;;;;;5072204;28;20007;-76
2021/12/28 02:12:36;;;;;;;;;;;3.60;99.90;;;;;;5072292;28;20014;-76
2021/12/28 02:15:06;;;;;;;;;;;3.70;99.90;;;;;;5062536;28;19963;-76
2021/12/28 02:17:33;;;;;;;;;;;3.70;99.90;;;;;;5052680;28;19994;-76
2021/12/28 02:20:04;;;;;;;;;;;3.80;99.90;;;;;;5052386;28;19943;-76
2021/12/28 02:22:30;;;;;;;;;;;3.80;99.90;;;;;;5070194;28;19931;-76
2021/12/28 02:24:55;;;;;;;;;;;3.80;99.90;;;;;;5052085;28;19924;-76
2021/12/28 02:27:21;;;;;;;;;;;3.80;99.90;;;;;;5051574;28;20440;-76
2021/12/28 02:29:46;;;;;;;;;;;3.90;99.90;;;;;;5051976;28;19970;-76
2021/12/28 02:32:12;;;;;;;;;;;3.90;99.90;;;;;;5051788;28;19963;-76
2021/12/28 02:34:37;;;;;;;;;;;3.90;99.90;;;;;;5052099;28;20275;-76
2021/12/28 02:37:03;;;;;;;;;;;3.90;99.90;;;;;;5051597;28;19990;-76
2021/12/28 02:39:28;;;;;;;;;;;4.00;99.90;;;;;;5069485;28;20457;-76
2021/12/28 02:41:54;;;;;;;;;;;4.00;99.90;;;;;;5069633;28;20003;-76
2021/12/28 02:44:20;;;;;;;;;;;4.00;99.90;;;;;;5035097;28;20459;-76
2021/12/28 02:46:45;;;;;;;;;;;3.90;99.90;;;;;;5069564;28;20333;-76
2021/12/28 02:49:10;;;;;;;;;;;3.90;99.90;;;;;;5051083;28;20401;-76
2021/12/28 02:51:36;;;;;;;;;;;3.90;99.90;;;;;;5051717;28;19924;-76
2021/12/28 02:54:01;;;;;;;;;;;3.90;99.90;;;;;;5051266;28;19962;-76
2021/12/28 02:56:27;;;;;;;;;;;3.90;99.90;;;;;;5051528;28;20426;-76
2021/12/28 02:58:53;;;;;;;;;;;4.00;99.90;;;;;;5051613;28;19921;-76
2021/12/28 03:01:20;;;;;;;;;;;4.00;99.90;;;;;;5051034;28;20014;-76
2021/12/28 03:03:47;;;;;;;;;;;4.00;99.90;;;;;;5051206;28;19920;-76
2021/12/28 03:06:13;;;;;;;;;;;4.10;99.90;;;;;;5084946;28;20008;-76
2021/12/28 03:08:41;;;;;;;;;;;4.20;99.90;;;;;;5051177;28;19920;-76
2021/12/28 03:11:07;;;;;;;;;;;4.20;99.90;;;;;;5051237;28;20325;-76
2021/12/28 03:13:35;;;;;;;;;;;4.20;99.90;;;;;;5084602;28;19924;-76
2021/12/28 03:16:00;;;;;;;;;;;4.20;99.90;;;;;;5067702;28;19924;-76
2021/12/28 03:18:26;;;;;;;;;;;4.10;99.90;;;;;;5070329;28;19926;-76
2021/12/28 03:20:52;;;;;;;;;;;4.20;99.90;;;;;;5071176;28;20696;-76
2021/12/28 03:23:20;;;;;;;;;;;4.20;99.90;;;;;;5054606;28;19922;-76
2021/12/28 03:25:45;;;;;;;;;;;4.10;99.90;;;;;;5053807;28;20023;-76
2021/12/28 03:28:15;;;;;;;;;;;4.20;99.90;;;;;;5070842;28;20006;-76
2021/12/28 03:30:40;;;;;;;;;;;4.20;99.90;;;;;;5071265;28;19920;-76
2021/12/28 03:33:06;;;;;;;;;;;4.20;99.90;;;;;;5054083;28;19924;-76
2021/12/28 03:35:31;;;;;;;;;;;4.20;99.90;;;;;;5053896;28;19945;-76
2021/12/28 03:37:57;;;;;;;;;;;4.20;99.90;;;;;;5053931;28;20477;-76
2021/12/28 03:40:22;;;;;;;;;;;4.20;99.90;;;;;;5070987;28;19927;-76
2021/12/28 03:42:48;;;;;;;;;;;4.20;99.90;;;;;;5070845;28;20018;-76
2021/12/28 03:45:14;;;;;;;;;;;4.20;99.90;;;;;;5070979;28;19970;-76
2021/12/28 03:47:39;;;;;;;;;;;4.20;99.90;;;;;;5070836;28;19920;-75
2021/12/28 03:50:06;;;;;;;;;;;4.20;99.90;;;;;;5070782;28;19924;-76
2021/12/28 03:52:31;;;;;;;;;;;4.20;99.90;;;;;;5070822;28;20366;-76
2021/12/28 03:54:57;;;;;;;;;;;4.20;99.90;;;;;;5054114;28;19924;-76
2021/12/28 03:57:22;;;;;;;;;;;4.20;99.90;;;;;;5070809;28;20015;-76
2021/12/28 03:59:48;;;;;;;;;;;4.20;99.90;;;;;;5054058;28;20301;-76
2021/12/28 04:02:13;;;;;;;;;;;4.30;99.90;;;;;;5070127;28;20369;-76
2021/12/28 04:04:39;;;;;;;;;;;4.20;99.90;;;;;;5071166;28;19919;-76
2021/12/28 04:07:07;;;;;;;;;;;4.20;99.90;;;;;;5070677;28;19924;-76
2021/12/28 04:09:57;;;;;;;;;;;4.30;99.90;;;;;;5070396;28;19920;-76
2021/12/28 04:12:20;;;;;;;;;;;4.30;99.90;;;;;;5070315;28;19920;-76
2021/12/28 04:14:46;;;;;;;;;;;4.30;99.90;;;;;;5047409;28;19920;-76
2021/12/28 04:17:11;;;;;;;;;;;4.30;99.90;;;;;;5083669;28;20493;-76
2021/12/28 04:19:37;;;;;;;;;;;4.30;99.90;;;;;;5050604;28;19931;-76
2021/12/28 04:22:03;;;;;;;;;;;4.30;99.90;;;;;;5050410;28;19920;-76
2021/12/28 04:24:28;;;;;;;;;;;4.30;99.90;;;;;;5084229;28;19943;-76
2021/12/28 04:26:54;;;;;;;;;;;4.30;99.90;;;;;;5033458;28;19977;-76
2021/12/28 04:29:19;;;;;;;;;;;4.30;99.90;;;;;;5083997;28;19925;-76
2021/12/28 04:31:45;;;;;;;;;;;4.30;99.90;;;;;;5037491;28;20392;-76
2021/12/28 04:34:10;;;;;;;;;;;4.30;99.90;;;;;;5054117;28;20430;-76
2021/12/28 04:36:36;;;;;;;;;;;4.30;99.90;;;;;;5037862;28;19920;-76
2021/12/28 04:39:03;;;;;;;;;;;4.30;99.90;;;;;;5053702;28;20401;-76
2021/12/28 04:41:29;;;;;;;;;;;4.30;99.90;;;;;;5053746;28;19920;-76
2021/12/28 04:43:55;;;;;;;;;;;4.30;99.90;;;;;;5087550;28;19920;-76
2021/12/28 04:46:20;;;;;;;;;;;4.30;99.90;;;;;;5053738;28;19924;-76
2021/12/28 04:48:46;;;;;;;;;;;4.40;99.90;;;;;;5087705;28;20268;-76
2021/12/28 04:51:11;;;;;;;;;;;4.40;99.90;;;;;;5087345;28;19974;-76
2021/12/28 04:53:37;;;;;;;;;;;4.40;99.90;;;;;;5037314;28;20003;-76
2021/12/28 04:56:03;;;;;;;;;;;4.40;99.90;;;;;;5036690;28;19971;-76
2021/12/28 04:58:28;;;;;;;;;;;4.40;99.90;;;;;;5087222;28;20339;-76
2021/12/28 05:00:54;;;;;;;;;;;4.50;99.90;;;;;;5054000;28;19931;-76
2021/12/28 05:03:20;;;;;;;;;;;4.50;99.90;;;;;;5036543;28;20013;-76
2021/12/28 05:05:48;;;;;;;;;;;4.50;99.90;;;;;;5053423;28;19920;-76
2021/12/28 05:08:14;;;;;;;;;;;4.50;99.90;;;;;;5053435;28;19931;-76
2021/12/28 05:10:40;;;;;;;;;;;4.50;99.90;;;;;;5053305;28;20292;-75
2021/12/28 05:13:06;;;;;;;;;;;4.50;99.90;;;;;;5086780;28;19999;-76
2021/12/28 05:15:32;;;;;;;;;;;4.50;99.90;;;;;;5090424;28;19920;-76
2021/12/28 05:17:57;;;;;;;;;;;4.50;99.90;;;;;;5073293;28;19920;-76
2021/12/28 05:20:23;;;;;;;;;;;4.50;99.90;;;;;;5073324;28;20425;-76
2021/12/28 05:22:49;;;;;;;;;;;4.50;99.90;;;;;;5073332;28;20022;-76
2021/12/28 05:25:14;;;;;;;;;;;4.50;99.90;;;;;;5073579;28;20046;-76
2021/12/28 05:27:41;;;;;;;;;;;4.50;99.90;;;;;;5072705;28;20378;-76
2021/12/28 05:30:07;;;;;;;;;;;4.60;99.90;;;;;;5073135;28;20396;-76
2021/12/28 05:32:33;;;;;;;573.35;82.47;;;4.60;99.90;;;;;;5072533;28;19950;-76
2021/12/28 05:34:59;;;;;;;694.80;127.73;;;4.70;99.90;;;;;;5071058;28;20848;-76
2021/12/28 05:37:25;;;;;;;760.40;133.20;;;4.70;99.90;;;;;;5089253;28;20485;-75
2021/12/28 05:39:50;;;;;;;660.60;121.20;;;4.80;99.90;;;;;;5070816;28;20484;-76
2021/12/28 05:42:16;;;;;;;699.20;125.37;;;4.80;99.90;;;;;;5053514;28;20416;-76
2021/12/28 05:44:42;;;;;;;510.93;106.37;;;4.80;99.90;;;;;;5071149;28;20401;-76
2021/12/28 05:47:07;;;;;;;514.78;104.50;;;4.80;99.90;;;;;;5072135;28;20850;-76
2021/12/28 05:49:33;;;;;;;544.33;107.23;;;4.80;99.90;;;;;;5071729;28;20485;-76
2021/12/28 05:51:59;;;;;;;543.58;106.85;;;4.80;99.90;;;;;;5071811;28;20476;-76
2021/12/28 05:54:25;;;;;;;745.88;121.15;;;4.80;99.90;;;;;;5071582;28;20426;-76
2021/12/28 05:56:50;;;;;;;606.90;112.03;;;4.80;99.90;;;;;;5071748;28;20406;-76
2021/12/28 05:59:16;;;;;;;590.58;108.25;;;4.70;99.90;;;;;;5089348;28;20413;-75
2021/12/28 06:01:42;;;;;;;635.83;112.93;;;4.70;99.90;;;;;;5071282;28;20450;-76
2021/12/28 06:04:08;;;;;;;531.37;103.07;;;4.70;99.90;;;;;;5055065;28;20410;-76
2021/12/28 06:06:34;;;;;;;444.00;92.33;;;4.70;99.90;;;;;;5071636;28;20478;-76
2021/12/28 06:09:00;;;;;;;610.50;110.88;;;4.70;99.90;;;;;;5071499;28;20402;-76
2021/12/28 06:11:25;;;;;;;568.30;104.32;;;4.70;99.90;;;;;;5070698;28;20410;-76
2021/12/28 06:13:52;;;;;;;559.57;103.10;;;4.60;99.90;;;;;;5071340;28;20460;-76
2021/12/28 06:16:18;;;;;;;509.27;97.90;;;4.60;99.90;;;;;;5051425;28;20427;-76
2021/12/28 06:18:44;;;;;;;533.23;100.03;;;4.60;99.90;;;;;;5051179;28;20468;-76
2021/12/28 06:21:10;;;;;;;393.52;85.63;;;4.60;99.90;;;;;;5050912;28;20406;-76
2021/12/28 06:23:36;;;;;;;450.63;91.18;;;4.60;99.90;;;;;;5050982;28;20479;-76
2021/12/28 06:26:02;;;;;;;483.48;93.88;;;4.60;99.90;;;;;;5034177;28;20499;-75
2021/12/28 06:28:27;;;;;;;514.97;96.18;;;4.60;99.90;;;;;;5034107;28;21339;-76
2021/12/28 06:30:53;;;;;;;327.20;76.50;;;4.60;99.90;;;;;;5050429;28;20468;-75
2021/12/28 06:33:20;;;;;;;408.00;85.97;;;4.70;99.90;;;;;;5050941;28;20407;-76
2021/12/28 06:35:47;;;;;;;317.93;72.97;;;4.70;99.90;;;;;;5051047;28;20929;-76
2021/12/28 06:38:13;;;;;;;360.92;80.35;;;4.60;99.90;;;;;;5050487;28;20416;-75
2021/12/28 06:40:38;;;;;;;348.25;79.35;;;4.70;99.90;;;;;;5050963;28;20457;-76
2021/12/28 06:43:04;;;;;;;343.85;78.00;;;4.70;99.90;;;;;;5050823;28;20396;-76
2021/12/28 06:45:30;;;;;;;235.13;65.23;;;4.70;99.90;;;;;;5053930;28;20413;-76
2021/12/28 06:47:55;;;;;;;235.30;68.80;;;4.70;99.90;;;;;;5052340;28;20788;-74
2021/12/28 06:50:21;;;;;;;206.85;65.90;;;4.70;99.90;;;;;;5068231;28;20395;-74
2021/12/28 06:52:46;;;;;;;233.50;65.60;;;4.70;99.90;;;;;;5050518;28;20404;-74
2021/12/28 06:55:12;;;;;;;202.75;64.32;;;4.70;99.90;;;;;;5058460;28;20426;-74
2021/12/28 06:57:38;;;;;;;201.13;61.72;;;4.80;99.90;;;;;;5058108;28;20412;-75
2021/12/28 07:00:10;;;;;;;213.30;66.13;;;4.80;99.90;;;;;;5059884;28;20417;-75
2021/12/28 07:02:36;;;;;;;198.57;63.60;;;4.80;99.90;;;;;;5070498;28;20405;-75
2021/12/28 07:05:03;;;;;;;172.87;60.13;;;4.90;99.90;;;;;;5070435;28;20402;-75
2021/12/28 07:07:29;;;;;;;204.25;64.55;;;4.90;99.90;;;;;;5069830;28;20508;-75
2021/12/28 07:09:54;;;;;;;227.30;65.73;;;4.90;99.90;;;;;;5070256;28;20532;-75
2021/12/28 07:12:20;;;;;;;240.73;69.78;;;4.90;99.90;;;;;;5070118;28;20495;-76
2021/12/28 07:14:47;;;;;;;167.20;59.60;;;4.90;99.90;;;;;;5063672;28;20431;-76
2021/12/28 07:17:12;;;;;;;161.15;58.67;;;4.80;99.90;;;;;;5049988;28;20921;-76
2021/12/28 07:19:38;;;;;;;176.63;60.63;;;4.80;99.90;;;;;;5049964;28;20399;-76
2021/12/28 07:22:04;;;;;;;222.90;65.67;;;4.80;99.90;;;;;;5050196;28;20488;-77
2021/12/28 07:24:30;;;;;;;190.93;61.67;;;4.80;99.90;;;;;;5033974;28;20464;-76
2021/12/28 07:26:56;;;;;;;180.00;60.65;;;4.80;99.90;;;;;;5049836;28;20933;-76
2021/12/28 07:29:22;;;;;;;144.27;56.60;;;4.80;99.90;;;;;;5049742;28;20400;-76
2021/12/28 07:31:49;;;;;;;152.73;56.85;;;4.80;99.90;;;;;;5050139;28;20427;-76
2021/12/28 07:34:15;;;;;;;106.82;50.03;;;4.70;99.90;;;;;;5058851;28;20415;-75
2021/12/28 07:36:41;;;;;;;138.03;54.33;;;4.80;99.90;;;;;;5047243;28;20933;-76
2021/12/28 07:39:07;;;;;;;114.00;49.03;;;4.80;99.90;;;;;;5051130;28;20765;-76
2021/12/28 07:41:33;;;;;;;118.00;51.00;;;4.80;99.90;;;;;;5075406;28;20462;-76
2021/12/28 07:43:59;;;;;;;89.20;44.90;;;4.80;99.90;;;;;;5079031;28;20464;-77
2021/12/28 07:46:24;;;;;;;98.30;47.37;;;4.80;99.90;;;;;;5061475;28;20919;-77
2021/12/28 07:48:50;;;;;;;125.82;51.20;;;4.90;99.90;;;;;;5066749;28;20829;-77
2021/12/28 07:51:16;;;;;;;88.37;41.67;;;4.90;99.90;;;;;;5069828;28;20863;-76
2021/12/28 07:53:41;;;;;;;110.95;47.55;;;4.90;99.90;;;;;;5046164;28;20446;-76
2021/12/28 07:56:07;;;;;;;92.77;42.53;;;4.90;99.90;;;;;;5058995;28;20471;-77
2021/12/28 07:58:33;;;;;;;78.28;41.13;;;5.00;99.90;;;;;;5049702;28;20404;-76
2021/12/28 08:00:59;;;;;;;74.43;34.17;;;5.00;99.90;;;;;;5069275;28;20051;-76
2021/12/28 08:03:24;;;;;;;72.18;30.65;;;5.00;99.90;;;;;;5052173;28;20403;-77
2021/12/28 08:05:51;;;;;;;79.55;31.75;;;5.00;99.90;;;;;;5072601;28;20079;-77
2021/12/28 08:08:17;;;;;;;78.50;32.15;;;5.00;99.90;;;;;;5057487;28;20421;-77
2021/12/28 08:10:44;;;;;;;67.78;29.05;;;5.10;99.90;;;;;;5073847;28;20051;-77
2021/12/28 08:13:10;;;;;;;89.53;32.55;;;5.00;99.90;;;;;;5066340;28;20127;-76
2021/12/28 08:15:36;;;;;;;72.50;30.33;;;5.10;99.90;;;;;;5074262;28;20045;-77
2021/12/28 08:18:03;;;;;;;;;;;5.00;99.90;;;;;;5055640;28;20127;-77
2021/12/28 08:20:29;;;;;;;;;;;5.00;99.90;;;;;;5073582;28;19921;-77
2021/12/28 08:22:59;;;;;;;;;;;5.00;99.90;;;;;;5076349;28;19994;-77
2021/12/28 08:25:25;;;;;;;;;;;5.00;99.90;;;;;;5075020;28;20400;-77
2021/12/28 08:27:51;;;;;;;;;;;5.00;99.90;;;;;;5088837;28;19919;-77
2021/12/28 08:30:17;;;;;;;;;;;5.00;99.90;;;;;;5093043;28;19924;-77
2021/12/28 08:32:43;;;;;;;60.95;26.42;;;5.00;99.90;;;;;;5055352;28;19986;-76
2021/12/28 08:35:09;;;;;;;62.70;34.03;;;5.00;99.90;;;;;;5059696;28;20518;-77
2021/12/28 08:37:34;;;;;;;61.55;33.10;;;5.00;99.90;;;;;;5073464;28;20760;-77
2021/12/28 08:40:00;;;;;;;61.20;32.47;;;5.00;99.90;;;;;;5073132;28;20434;-77
2021/12/28 08:42:26;;;;;;;53.05;28.77;;;5.00;99.90;;;;;;5076061;28;20407;-77
2021/12/28 08:44:52;;;;;;;61.73;30.60;;;5.10;99.90;;;;;;5071011;28;20411;-76
2021/12/28 08:47:19;;;;;;;61.13;30.17;;;5.10;99.90;;;;;;5046915;28;20457;-76
2021/12/28 08:49:45;;;;;;;60.38;30.75;;;5.10;99.90;;;;;;5084442;28;20428;-77
2021/12/28 08:52:10;;;;;;;46.60;25.33;;;5.10;99.90;;;;;;5058875;28;20398;-77
2021/12/28 08:54:36;;;;;;;55.03;26.98;;;5.00;99.90;;;;;;5089681;28;20814;-77
2021/12/28 08:57:03;;;;;;;54.35;27.48;;;5.10;99.90;;;;;;5072985;28;20398;-77
2021/12/28 08:59:28;;;;;;;50.85;25.42;;;5.10;99.90;;;;;;5072794;28;20492;-77
2021/12/28 09:01:57;;;;;;;48.00;26.00;;;5.20;99.90;;;;;;5089507;28;20971;-77
2021/12/28 09:04:22;;;;;;;50.97;25.50;;;5.20;99.90;;;;;;5068950;28;20808;-77
2021/12/28 09:06:49;;;;;;;41.42;22.35;;;5.20;99.90;;;;;;5071773;28;20418;-77
2021/12/28 09:09:15;;;;;;;45.25;22.98;;;5.30;99.90;;;;;;5055082;28;20417;-76
2021/12/28 09:11:42;;;;;;;48.75;23.50;;;5.30;99.90;;;;;;5070734;28;20998;-76
2021/12/28 09:14:09;;;;;;;45.30;23.05;;;5.30;99.90;;;;;;5070497;28;21136;-75
2021/12/28 09:16:34;;;;;;;41.78;20.92;;;5.40;99.90;;;;;;5086385;28;20402;-77
2021/12/28 09:19:00;;;;;;;39.70;19.75;;;5.40;99.90;;;;;;5071670;28;20409;-76
2021/12/28 09:21:26;;;;;;;39.13;20.23;;;5.40;99.90;;;;;;5067278;28;20403;-77
2021/12/28 09:23:52;;;;;;;42.50;20.00;;;5.50;99.90;;;;;;5067869;28;20412;-77
2021/12/28 09:26:17;;;;;;;37.17;18.17;;;5.50;99.90;;;;;;5085986;28;20441;-76
2021/12/28 09:28:43;;;;;;;33.10;17.17;;;5.50;99.90;;;;;;5053521;28;20473;-77
2021/12/28 09:31:08;;;;;;;38.60;18.73;;;5.60;99.90;;;;;;5068324;28;20490;-76
2021/12/28 09:33:34;;;;;;;34.30;13.93;;;5.60;99.90;;;;;;5071462;28;20530;-76
2021/12/28 09:36:01;;;;;;;35.47;13.90;;;5.70;99.90;;;;;;5069486;28;20051;-77
2021/12/28 09:38:27;;;;;;;34.83;13.23;;;5.70;99.90;;;;;;5070781;28;20049;-77
2021/12/28 09:40:53;;;;;;;42.42;14.07;;;5.70;99.90;;;;;;5072258;28;20055;-77
2021/12/28 09:43:19;;;;;;;33.28;13.50;;;5.80;99.90;;;;;;5071098;28;20044;-77
2021/12/28 09:45:46;;;;;;;32.60;12.70;;;5.80;99.90;;;;;;5057573;28;20454;-77
2021/12/28 09:48:11;;;;;;;40.08;13.82;;;5.80;99.90;;;;;;5053094;28;20048;-77
2021/12/28 09:50:39;;;;;;;33.22;15.77;;;5.90;99.90;;;;;;5062137;28;20404;-77
2021/12/28 09:53:07;;;;;;;37.10;17.30;;;5.90;99.90;;;;;;5070829;28;20463;-76
2021/12/28 09:55:32;;;;;;;33.63;16.13;;;5.90;99.90;;;;;;5068381;28;20474;-77
2021/12/28 09:57:59;;;;;;;34.85;14.90;;;5.90;99.90;;;;;;5071180;28;20442;-77
2021/12/28 10:00:26;;;;;;;36.22;14.98;;;6.00;99.90;;;;;;5070712;28;20436;-77
2021/12/28 10:02:53;;;;;;;33.55;14.52;;;6.00;99.90;;;;;;5053614;28;20403;-77
2021/12/28 10:05:23;;;;;;;33.17;12.00;;;6.00;99.90;;;;;;5035336;28;20051;-77
2021/12/28 10:07:57;;;;;;;29.10;11.13;;;6.10;99.90;;;;;;5048539;28;20095;-75
2021/12/28 10:10:29;;;;;;;33.38;10.73;;;6.10;99.90;;;;;;5050088;28;20056;-75
2021/12/28 10:13:26;;;;;;;34.88;11.02;;;6.10;99.90;;;;;;5049829;28;20044;-75
2021/12/28 10:15:52;;;;;;;22.48;9.80;;;6.20;99.90;;;;;;5061197;28;20060;-75
2021/12/28 10:18:18;;;;;;;26.95;10.35;;;6.20;99.90;;;;;;5068286;28;20052;-75
2021/12/28 10:20:57;;;;;;;31.55;10.48;;;6.30;99.90;;;;;;5047350;28;20414;-76
2021/12/28 10:23:25;;;;;;;27.40;10.10;;;6.30;99.90;;;;;;5067475;28;20048;-76
2021/12/28 10:26:01;;;;;;;25.58;8.93;;;6.40;99.90;;;;;;5061633;28;20503;-76
2021/12/28 10:28:33;;;;;;;29.33;10.02;;;6.40;99.90;;;;;;5031207;28;20114;-76
2021/12/28 10:31:17;;;;;;;27.15;10.23;;;6.50;99.90;;;;;;5048089;28;20048;-76
2021/12/28 10:33:43;;;;;;;29.20;8.90;;;6.50;99.90;;;;;;5050473;28;20376;-76
2021/12/28 10:36:13;;;;;;;24.90;9.20;;;6.60;99.90;;;;;;5031617;28;20079;-76
2021/12/28 10:38:45;;;;;;;34.75;9.55;;;6.60;99.90;;;;;;5060481;28;20040;-76
2021/12/28 10:41:15;;;;;;;25.83;8.75;;;6.60;99.90;;;;;;5057080;28;20076;-76
2021/12/28 10:43:45;;;;;;;37.35;8.80;;;6.70;99.90;;;;;;5047879;28;20047;-76
2021/12/28 10:46:15;;;;;;;26.15;9.75;;;6.70;99.90;;;;;;5048094;28;20083;-76
2021/12/28 10:49:02;;;;;;;24.20;8.73;;;6.80;99.90;;;;;;5049385;28;20041;-76
2021/12/28 10:51:41;;;;;;;28.85;9.30;;;6.70;99.90;;;;;;5062582;28;20103;-76
2021/12/28 10:54:12;;;;;;;23.90;8.73;;;6.70;99.90;;;;;;5067444;28;20129;-76
2021/12/28 10:56:54;;;;;;;25.08;8.93;;;6.70;99.90;;;;;;5069265;28;20041;-76
2021/12/28 10:59:26;;;;;;;23.92;7.57;;;6.70;99.90;;;;;;5068461;28;20499;-77
2021/12/28 11:01:53;;;;;;;23.00;7.75;;;6.70;99.90;;;;;;5058309;28;20044;-76
2021/12/28 11:04:19;;;;;;;21.35;8.13;;;6.70;99.90;;;;;;5067985;28;20526;-76
2021/12/28 11:06:49;;;;;;;31.35;8.60;;;6.70;99.90;;;;;;5069713;28;20052;-77
2021/12/28 11:09:17;;;;;;;23.10;8.32;;;6.70;99.90;;;;;;5070797;28;20051;-76
2021/12/28 11:11:45;;;;;;;24.33;8.15;;;6.70;99.90;;;;;;5079724;28;20041;-74
2021/12/28 11:14:16;;;;;;;22.02;8.07;;;6.80;99.90;;;;;;5052531;28;20044;-74
2021/12/28 11:16:52;;;;;;;20.33;8.38;;;6.80;99.90;;;;;;5070401;28;20047;-74
2021/12/28 11:19:32;;;;;;;25.08;8.57;;;6.80;99.90;;;;;;5088755;28;20070;-75
2021/12/28 11:22:04;;;;;;;24.90;7.70;;;6.90;99.90;;;;;;5070260;28;20131;-75
2021/12/28 11:24:39;;;;;;;26.15;8.43;;;6.90;99.90;;;;;;5078487;28;20619;-75
2021/12/28 11:27:07;;;;;;;28.75;8.73;;;6.90;99.90;;;;;;5067487;28;20051;-75
2021/12/28 11:29:35;;;;;;;27.50;9.32;;;6.90;99.90;;;;;;5069881;28;20094;-75
2021/12/28 11:32:04;;;;;;;26.45;8.88;;;6.90;99.90;;;;;;5085340;28;20046;-75
2021/12/28 11:34:31;;;;;;;28.60;9.43;;;6.90;99.90;;;;;;5083268;28;20626;-75
2021/12/28 11:37:01;;;;;;;30.13;9.60;;;6.90;99.90;;;;;;5087337;28;20083;-75
2021/12/28 11:39:33;;;;;;;23.08;9.68;;;6.90;99.90;;;;;;5086803;28;20048;-75
2021/12/28 11:41:59;;;;;;;25.20;10.18;;;6.90;99.90;;;;;;5065724;28;20048;-75
2021/12/28 11:44:26;;;;;;;31.73;11.50;;;6.90;99.90;;;;;;5066733;28;20048;-75
2021/12/28 11:46:54;;;;;;;27.80;11.20;;;7.00;99.90;;;;;;5066728;28;20056;-75
2021/12/28 11:49:24;;;;;;;36.20;12.25;;;6.90;99.90;;;;;;5070427;28;20387;-75
2021/12/28 11:51:52;;;;;;;33.40;11.85;;;6.90;99.90;;;;;;5050698;28;20036;-75
2021/12/28 11:54:18;;;;;;;27.50;12.48;;;6.90;99.90;;;;;;5082004;28;20571;-75
2021/12/28 11:56:49;;;;;;;31.70;11.52;;;6.90;99.90;;;;;;5070179;28;20122;-75
2021/12/28 11:59:23;;;;;;;37.33;12.50;;;6.90;99.90;;;;;;5070381;28;20398;-74
2021/12/28 12:01:52;;;;;;;33.78;12.55;;;6.90;99.90;;;;;;5088366;28;20044;-74
2021/12/28 12:04:30;;;;;;;41.70;13.70;;;6.90;99.90;;;;;;5070339;28;20048;-74
2021/12/28 12:07:04;;;;;;;36.75;12.75;;;6.90;99.90;;;;;;5068924;28;20582;-75
2021/12/28 12:09:31;;;;;;;34.05;12.13;;;6.90;99.90;;;;;;5056942;28;20064;-74
2021/12/28 12:12:10;;;;;;;31.50;12.43;;;7.00;99.90;;;;;;5055207;28;20044;-74
2021/12/28 12:14:51;;;;;;;33.30;11.93;;;7.00;99.90;;;;;;5064164;28;20037;-75
2021/12/28 12:17:45;;;;;;;32.42;13.23;;;7.00;99.90;;;;;;5064401;28;20119;-74
2021/12/28 12:20:17;;;;;;;37.22;13.10;;;7.00;99.90;;;;;;5049429;28;20045;-74
2021/12/28 12:22:48;;;;;;;30.98;12.00;;;7.00;99.90;;;;;;5067287;28;20106;-74
2021/12/28 12:25:43;;;;;;;34.70;13.38;;;7.10;99.90;;;;;;5051528;28;20040;-75
2021/12/28 12:28:10;;;;;;;36.15;12.85;;;7.10;99.90;;;;;;5056297;28;20123;-74
2021/12/28 12:30:43;;;;;;;35.47;12.98;;;7.10;99.90;;;;;;5070822;28;20452;-74
2021/12/28 12:33:12;;;;;;;30.52;12.27;;;7.10;99.90;;;;;;5071048;28;20123;-75
2021/12/28 12:35:51;;;;;;;43.80;14.15;;;7.10;99.90;;;;;;5070549;28;20040;-75
2021/12/28 12:38:32;;;;;;;30.00;12.77;;;7.10;99.90;;;;;;5070384;28;20048;-75
2021/12/28 12:41:19;;;;;;;30.77;13.65;;;7.10;99.90;;;;;;5067508;28;20044;-75
2021/12/28 12:43:48;;;;;;;37.05;12.82;;;7.20;99.90;;;;;;5050492;28;20049;-75
2021/12/28 12:46:22;;;;;;;32.30;13.05;;;7.10;99.90;;;;;;5068762;28;20047;-75
2021/12/28 12:48:54;;;;;;;30.10;12.95;;;7.10;99.90;;;;;;5070961;28;20506;-75
2021/12/28 12:51:26;;;;;;;30.05;12.77;;;7.20;99.90;;;;;;5070941;28;20055;-75
2021/12/28 12:54:16;;;;;;;37.92;13.48;;;7.20;99.90;;;;;;5072273;28;20418;-75
2021/12/28 12:56:50;;;;;;;30.92;13.38;;;7.20;99.90;;;;;;5071291;28;20040;-75
2021/12/28 12:59:38;;;;;;;34.63;13.45;;;7.20;99.90;;;;;;5070478;28;20081;-75
2021/12/28 13:02:14;;;;;;;34.42;12.90;;;7.20;99.90;;;;;;5070462;28;20097;-75
2021/12/28 13:04:43;;;;;;;33.45;13.88;;;7.20;99.90;;;;;;5056359;28;20079;-75
2021/12/28 13:07:23;;;;;;;27.52;12.82;;;7.20;99.90;;;;;;5055827;28;20056;-75
2021/12/28 13:09:57;;;;;;;27.27;14.20;;;7.30;99.90;;;;;;5070737;28;20102;-75
2021/12/28 13:12:24;;;;;;;;;;;7.30;99.90;;;;;;5053529;28;20048;-75
2021/12/28 13:14:50;;;;;;;32.47;13.75;;;7.30;99.90;;;;;;5052707;28;19920;-75
2021/12/28 13:17:24;;;;;;;25.05;13.35;;;7.30;99.90;;;;;;5066066;28;20055;-75
2021/12/28 13:20:06;;;;;;;24.38;13.15;;;7.30;99.90;;;;;;5069305;28;20487;-75